createdAt,value
2018-10-11T00:02:14.916Z,9.70
2018-10-11T00:12:16.163Z,9.90
2018-10-11T00:22:17.416Z,10.00
2018-10-11T00:32:18.718Z,10.00
2018-10-11T00:42:20.758Z,10.00
2018-10-11T00:52:22.009Z,10.00
2018-10-11T01:02:23.275Z,9.90
2018-10-11T01:12:24.548Z,9.90
2018-10-11T01:22:26.594Z,9.80
2018-10-11T01:32:27.861Z,9.80
2018-10-11T01:42:29.138Z,9.80
2018-10-11T01:52:30.417Z,9.90
2018-10-11T02:02:31.672Z,9.80
2018-10-11T02:12:32.931Z,9.40
2018-10-11T02:22:34.952Z,9.40
2018-10-11T02:32:36.200Z,9.40
2018-10-11T02:42:37.458Z,9.00
2018-10-11T02:52:42.794Z,8.80
2018-10-11T03:02:44.071Z,8.60
2018-10-11T03:12:45.346Z,8.60
2018-10-11T03:22:46.610Z,8.50
2018-10-11T03:32:48.639Z,8.50
2018-10-11T03:42:50.942Z,8.50
2018-10-11T03:52:53.012Z,8.30
2018-10-11T04:02:54.283Z,8.30
2018-10-11T04:12:55.564Z,8.10
2018-10-11T04:22:56.812Z,8.00
2018-10-11T04:32:58.077Z,8.10
2018-10-11T04:42:59.381Z,7.90
2018-10-11T04:53:01.369Z,8.10
2018-10-11T05:03:02.628Z,8.10
2018-10-11T05:13:03.889Z,8.00
2018-10-11T05:23:05.142Z,8.00
2018-10-11T05:33:07.186Z,8.30
2018-10-11T05:43:08.446Z,8.30
2018-10-11T05:53:10.456Z,8.40
2018-10-11T06:03:11.710Z,8.40
2018-10-11T06:13:12.995Z,8.80
2018-10-11T06:23:14.260Z,9.10
2018-10-11T06:33:15.514Z,9.40
2018-10-11T06:43:16.826Z,10.00
2018-10-11T06:53:18.114Z,10.70
2018-10-11T07:03:19.391Z,11.20
2018-10-11T07:13:20.675Z,12.00
2018-10-11T07:23:21.950Z,12.40
2018-10-11T07:33:23.239Z,13.20
2018-10-11T07:43:24.494Z,13.30
2018-10-11T07:53:25.741Z,14.20
2018-10-11T08:03:27.033Z,14.40
2018-10-11T08:13:28.290Z,15.00
2018-10-11T08:23:30.315Z,16.10
2018-10-11T08:33:31.614Z,16.00
2018-10-11T08:43:33.738Z,17.40
2018-10-11T08:53:34.962Z,17.40
2018-10-11T09:03:36.484Z,22.60
2018-10-11T09:13:38.463Z,26.40
2018-10-11T09:23:39.770Z,26.30
2018-10-11T09:33:41.014Z,27.90
2018-10-11T09:43:43.034Z,27.50
2018-10-11T09:53:45.043Z,23.40
2018-10-11T10:03:47.089Z,21.70
2018-10-11T10:13:48.358Z,21.60
2018-10-11T10:23:49.643Z,21.60
2018-10-11T10:33:51.694Z,21.80
2018-10-11T10:43:52.980Z,21.80
2018-10-11T10:53:54.471Z,20.70
2018-10-11T11:03:55.775Z,20.60
2018-10-11T11:13:57.065Z,20.70
2018-10-11T11:23:58.353Z,20.70
2018-10-11T11:33:59.619Z,21.00
2018-10-11T11:44:00.854Z,21.00
2018-10-11T11:54:02.145Z,20.80
2018-10-11T12:04:03.406Z,21.10
2018-10-11T12:14:04.676Z,21.20
2018-10-11T12:24:05.977Z,21.20
2018-10-11T12:34:07.271Z,21.10
2018-10-11T12:44:08.545Z,21.00
2018-10-11T12:54:09.819Z,21.00
2018-10-11T13:04:11.879Z,20.90
2018-10-11T13:14:13.135Z,20.90
2018-10-11T13:24:14.379Z,20.70
2018-10-11T13:34:17.269Z,20.70
2018-10-11T13:44:19.715Z,20.70
2018-10-11T13:54:20.986Z,20.50
2018-10-11T14:14:29.920Z,20.50
2018-10-11T14:24:32.019Z,20.50
2018-10-11T14:34:33.284Z,20.40
2018-10-11T14:44:34.655Z,20.30
2018-10-11T14:54:36.003Z,20.20
2018-10-11T15:04:40.264Z,19.80
2018-10-11T15:14:44.097Z,19.80
2018-10-11T15:24:45.582Z,19.50
2018-10-11T15:34:46.887Z,19.20
2018-10-11T15:44:48.161Z,18.90
2018-10-11T15:54:49.432Z,18.40
2018-10-11T16:04:50.790Z,17.80
2018-10-11T16:14:54.107Z,17.00
2018-10-11T16:24:55.473Z,16.20
2018-10-11T16:34:56.725Z,15.60
2018-10-11T16:44:57.994Z,15.10
2018-10-11T16:54:59.277Z,14.60
2018-10-11T17:05:00.598Z,14.40
2018-10-11T17:15:01.863Z,14.10
2018-10-11T17:25:03.116Z,13.70
2018-10-11T17:35:04.412Z,13.50
2018-10-11T17:45:05.663Z,13.30
2018-10-11T17:55:06.939Z,12.90
2018-10-11T18:05:08.219Z,12.60
2018-10-11T18:15:10.268Z,12.20
2018-10-11T18:25:11.619Z,12.20
2018-10-11T18:35:13.683Z,11.80
2018-10-11T18:45:15.264Z,11.80
2018-10-11T18:55:16.611Z,11.80
2018-10-11T19:05:17.901Z,11.60
2018-10-11T19:15:19.198Z,11.40
2018-10-11T19:25:20.477Z,11.30
2018-10-11T19:35:21.742Z,11.20
2018-10-11T19:45:23.002Z,11.00
2018-10-11T19:55:25.042Z,10.80
2018-10-11T20:05:26.500Z,10.80
2018-10-11T20:15:30.155Z,10.70
2018-10-11T20:25:31.879Z,10.70
2018-10-11T20:35:33.955Z,10.40
2018-10-11T20:45:35.271Z,10.40
2018-10-11T20:55:37.411Z,10.40
2018-10-11T21:05:38.708Z,10.40
2018-10-11T21:15:40.774Z,9.90
2018-10-11T21:25:42.088Z,9.90
2018-10-11T21:35:43.335Z,9.80
2018-10-11T21:45:44.650Z,9.60
2018-10-11T21:55:45.960Z,9.60
2018-10-11T22:05:47.246Z,9.50
2018-10-11T22:15:48.509Z,9.50
2018-10-11T22:25:49.785Z,9.50
2018-10-11T22:35:51.810Z,9.50
2018-10-11T22:45:53.198Z,9.50
2018-10-11T22:55:54.542Z,9.40
2018-10-11T23:05:55.787Z,9.20
2018-10-11T23:15:57.877Z,8.90
2018-10-11T23:25:59.114Z,8.90
2018-10-11T23:36:00.366Z,8.80
2018-10-11T23:46:01.631Z,8.80
2018-10-11T23:56:02.910Z,8.80
